createdAt,value
2016-10-27T00:00:43.757Z,0
2016-10-27T00:01:43.786Z,0
2016-10-27T00:02:43.711Z,0
2016-10-27T00:03:43.742Z,0
2016-10-27T00:04:43.715Z,0
2016-10-27T00:05:43.727Z,0
2016-10-27T00:06:43.688Z,0
2016-10-27T00:07:43.748Z,0
2016-10-27T00:08:43.837Z,0
2016-10-27T00:09:43.741Z,0
2016-10-27T00:10:43.818Z,0
2016-10-27T00:11:43.725Z,0
2016-10-27T00:12:43.756Z,0
2016-10-27T00:13:44.718Z,0
2016-10-27T00:14:43.746Z,0
2016-10-27T00:15:44.559Z,0
2016-10-27T00:16:43.770Z,0
2016-10-27T00:17:44.304Z,0
2016-10-27T00:18:44.237Z,0
2016-10-27T00:19:44.657Z,0
2016-10-27T00:20:43.738Z,0
2016-10-27T00:21:43.788Z,0
2016-10-27T00:22:43.752Z,0
2016-10-27T00:23:43.714Z,0
2016-10-27T00:24:43.672Z,0
2016-10-27T00:25:43.729Z,0
2016-10-27T00:26:43.715Z,0
2016-10-27T00:27:43.708Z,0
2016-10-27T00:28:43.748Z,0
2016-10-27T00:29:43.723Z,0
2016-10-27T00:30:43.706Z,0
2016-10-27T00:31:43.720Z,0
2016-10-27T00:32:43.742Z,0
2016-10-27T00:33:43.749Z,0
2016-10-27T00:34:43.736Z,0
2016-10-27T00:35:43.778Z,0
2016-10-27T00:36:43.978Z,0
2016-10-27T00:37:43.854Z,0
2016-10-27T00:38:44.696Z,0
2016-10-27T00:39:43.714Z,0
2016-10-27T00:40:43.774Z,0
2016-10-27T00:41:43.763Z,0
2016-10-27T00:42:43.781Z,0
2016-10-27T00:43:43.807Z,0
2016-10-27T00:44:43.814Z,0
2016-10-27T00:45:43.771Z,0
2016-10-27T00:46:43.778Z,0
2016-10-27T00:47:43.816Z,0
2016-10-27T00:48:43.804Z,0
2016-10-27T00:49:44.484Z,0
2016-10-27T00:50:43.754Z,0
2016-10-27T00:51:43.739Z,0
2016-10-27T00:52:43.685Z,0
2016-10-27T00:53:43.723Z,0
2016-10-27T00:54:43.726Z,0
2016-10-27T00:55:43.749Z,0
2016-10-27T00:56:43.694Z,0
2016-10-27T00:57:43.822Z,0
2016-10-27T00:58:43.711Z,0
2016-10-27T00:59:43.704Z,0
2016-10-27T01:00:43.739Z,0
2016-10-27T01:01:43.967Z,0
2016-10-27T01:02:43.738Z,0
2016-10-27T01:03:44.103Z,0
2016-10-27T01:04:43.751Z,0
2016-10-27T01:05:43.738Z,0
2016-10-27T01:06:43.831Z,0
2016-10-27T01:07:44.367Z,0
2016-10-27T01:08:43.778Z,0
2016-10-27T01:09:43.784Z,0
2016-10-27T01:10:44.693Z,0
2016-10-27T01:11:43.812Z,0
2016-10-27T01:12:44.060Z,0
2016-10-27T01:13:44.407Z,0
2016-10-27T01:14:44.138Z,0
2016-10-27T01:15:43.828Z,0
2016-10-27T01:16:43.767Z,0
2016-10-27T01:17:43.819Z,0
2016-10-27T01:18:44.624Z,0
2016-10-27T01:19:43.742Z,0
2016-10-27T01:20:43.779Z,0
2016-10-27T01:21:43.761Z,0
2016-10-27T01:22:43.729Z,0
2016-10-27T01:23:43.752Z,0
2016-10-27T01:24:43.772Z,0
2016-10-27T01:25:43.735Z,0
2016-10-27T01:26:43.817Z,0
2016-10-27T01:27:43.995Z,0
2016-10-27T01:28:43.750Z,0
2016-10-27T01:29:43.934Z,0
2016-10-27T01:30:43.769Z,0
2016-10-27T01:31:44.358Z,0
2016-10-27T01:32:44.217Z,0
2016-10-27T01:33:43.858Z,0
2016-10-27T01:34:43.764Z,0
2016-10-27T01:35:43.763Z,0
2016-10-27T01:36:43.785Z,0
2016-10-27T01:37:43.750Z,0
2016-10-27T01:38:43.757Z,0
2016-10-27T01:39:43.783Z,0
2016-10-27T01:40:44.412Z,0
2016-10-27T01:41:43.735Z,0
2016-10-27T01:42:45.087Z,0
2016-10-27T01:43:43.753Z,0
2016-10-27T01:44:43.756Z,0
2016-10-27T01:45:44.260Z,0
2016-10-27T01:46:43.754Z,0
2016-10-27T01:47:43.776Z,0
2016-10-27T01:48:43.753Z,0
2016-10-27T01:49:43.744Z,0
2016-10-27T01:50:43.753Z,0
2016-10-27T01:51:43.743Z,0
2016-10-27T01:52:43.764Z,0
2016-10-27T01:53:44.095Z,0
2016-10-27T01:54:44.371Z,0
2016-10-27T01:55:45.324Z,0
2016-10-27T01:56:44.762Z,0
2016-10-27T01:57:45.008Z,0
2016-10-27T01:58:44.772Z,0
2016-10-27T01:59:43.807Z,0
2016-10-27T02:00:43.807Z,0
2016-10-27T02:01:43.862Z,0
2016-10-27T02:02:44.287Z,0
2016-10-27T02:03:44.409Z,0
2016-10-27T02:04:44.258Z,0
2016-10-27T02:05:43.792Z,0
2016-10-27T02:06:43.806Z,0
2016-10-27T02:07:43.798Z,0
2016-10-27T02:08:43.813Z,0
2016-10-27T02:09:43.780Z,0
2016-10-27T02:10:43.770Z,0
2016-10-27T02:11:44.048Z,0
2016-10-27T02:12:43.767Z,0
2016-10-27T02:13:43.806Z,0
2016-10-27T02:14:43.778Z,0
2016-10-27T02:15:43.796Z,0
2016-10-27T02:16:43.894Z,0
2016-10-27T02:17:43.839Z,0
2016-10-27T02:18:43.826Z,0
2016-10-27T02:19:43.819Z,0
2016-10-27T02:20:43.855Z,0
2016-10-27T02:21:43.883Z,0
2016-10-27T02:22:43.836Z,0
2016-10-27T02:23:43.935Z,0
2016-10-27T02:24:43.829Z,0
2016-10-27T02:25:43.826Z,0
2016-10-27T02:26:43.814Z,0
2016-10-27T02:27:43.815Z,0
2016-10-27T02:28:43.811Z,0
2016-10-27T02:29:43.815Z,0
2016-10-27T02:30:43.788Z,0
2016-10-27T02:31:43.852Z,0
2016-10-27T02:32:43.967Z,0
2016-10-27T02:33:43.817Z,0
2016-10-27T02:34:43.796Z,0
2016-10-27T02:35:43.776Z,0
2016-10-27T02:36:43.778Z,0
2016-10-27T02:37:43.788Z,0
2016-10-27T02:38:43.817Z,0
2016-10-27T02:39:43.833Z,0
2016-10-27T02:40:43.837Z,0
2016-10-27T02:41:43.828Z,0
2016-10-27T02:42:43.857Z,0
2016-10-27T02:43:43.827Z,0
2016-10-27T02:44:43.856Z,0
2016-10-27T02:45:43.884Z,0
2016-10-27T02:46:43.884Z,0
2016-10-27T02:47:43.884Z,0
2016-10-27T02:48:43.946Z,0
2016-10-27T02:49:43.868Z,0
2016-10-27T02:50:43.939Z,0
2016-10-27T02:51:43.843Z,0
2016-10-27T02:52:43.844Z,0
2016-10-27T02:53:43.908Z,0
2016-10-27T02:54:43.853Z,0
2016-10-27T02:55:44.128Z,0
2016-10-27T02:56:44.005Z,0
2016-10-27T02:57:43.823Z,0
2016-10-27T02:58:43.855Z,0
2016-10-27T02:59:43.856Z,0
2016-10-27T03:00:43.872Z,0
2016-10-27T03:01:43.863Z,0
2016-10-27T03:02:43.885Z,0
2016-10-27T03:03:43.891Z,0
2016-10-27T03:04:43.899Z,0
2016-10-27T03:05:43.904Z,0
2016-10-27T03:06:44.204Z,0
2016-10-27T03:07:43.855Z,0
2016-10-27T03:08:43.924Z,0
2016-10-27T03:09:43.874Z,0
2016-10-27T03:10:43.907Z,0
2016-10-27T03:11:43.901Z,0
2016-10-27T03:12:43.850Z,0
2016-10-27T03:13:43.872Z,0
2016-10-27T03:14:43.872Z,0
2016-10-27T03:15:43.866Z,0
2016-10-27T03:16:43.932Z,0
2016-10-27T03:17:43.884Z,0
2016-10-27T03:18:43.945Z,0
2016-10-27T03:19:43.885Z,0
2016-10-27T03:20:43.892Z,0
2016-10-27T03:21:43.872Z,0
2016-10-27T03:22:43.840Z,0
2016-10-27T03:23:43.885Z,0
2016-10-27T03:24:43.936Z,0
2016-10-27T03:25:43.888Z,0
2016-10-27T03:26:43.850Z,0
2016-10-27T03:27:43.874Z,0
2016-10-27T03:28:43.925Z,0
2016-10-27T03:29:43.898Z,0
2016-10-27T03:30:43.883Z,0
2016-10-27T03:31:43.857Z,0
2016-10-27T03:32:43.849Z,0
2016-10-27T03:33:43.905Z,0
2016-10-27T03:34:43.862Z,0
2016-10-27T03:35:43.841Z,0
2016-10-27T03:36:43.911Z,0
2016-10-27T03:37:43.903Z,0
2016-10-27T03:38:43.941Z,0
2016-10-27T03:39:43.967Z,0
2016-10-27T03:40:43.903Z,0
2016-10-27T03:41:43.945Z,0
2016-10-27T03:42:43.937Z,0
2016-10-27T03:43:43.911Z,0
2016-10-27T03:44:44.010Z,0
2016-10-27T03:45:43.952Z,0
2016-10-27T03:46:44.063Z,0
2016-10-27T03:47:43.916Z,0
2016-10-27T03:48:43.904Z,0
2016-10-27T03:49:43.913Z,0
2016-10-27T03:50:43.920Z,0
2016-10-27T03:51:43.961Z,0
2016-10-27T03:52:43.967Z,0
2016-10-27T03:53:43.943Z,0
2016-10-27T03:54:43.933Z,0
2016-10-27T03:55:43.917Z,0
2016-10-27T03:56:43.936Z,0
2016-10-27T03:57:43.931Z,0
2016-10-27T03:58:43.944Z,0
2016-10-27T03:59:43.911Z,0
2016-10-27T04:00:43.908Z,0
2016-10-27T04:01:43.903Z,0
2016-10-27T04:02:43.986Z,0
2016-10-27T04:03:43.938Z,0
2016-10-27T04:04:43.887Z,0
2016-10-27T04:05:43.925Z,0
2016-10-27T04:06:43.915Z,0
2016-10-27T04:07:43.881Z,0
2016-10-27T04:08:43.902Z,0
2016-10-27T04:09:43.905Z,0
2016-10-27T04:10:43.919Z,0
2016-10-27T04:11:43.926Z,0
2016-10-27T04:12:52.685Z,0
2016-10-27T04:13:54.745Z,0
2016-10-27T04:14:52.954Z,0
2016-10-27T04:15:53.311Z,0
2016-10-27T04:16:43.917Z,0
2016-10-27T04:17:50.981Z,0
2016-10-27T04:18:54.857Z,0
2016-10-27T04:19:53.814Z,0
2016-10-27T04:20:53.961Z,0
2016-10-27T04:21:54.093Z,0
2016-10-27T04:22:54.470Z,0
2016-10-27T04:23:54.301Z,0
2016-10-27T04:24:43.932Z,0
2016-10-27T04:25:43.977Z,0
2016-10-27T04:26:43.948Z,0
2016-10-27T04:27:44.123Z,0
2016-10-27T04:28:43.962Z,0
2016-10-27T04:29:44.005Z,0
2016-10-27T04:30:43.910Z,0
2016-10-27T04:31:43.930Z,0
2016-10-27T04:32:43.935Z,0
2016-10-27T04:33:43.935Z,0
2016-10-27T04:34:43.948Z,0
2016-10-27T04:35:43.913Z,0
2016-10-27T04:36:43.962Z,0
2016-10-27T04:37:43.915Z,0
2016-10-27T04:38:43.922Z,0
2016-10-27T04:39:44.000Z,0
2016-10-27T04:40:43.939Z,0
2016-10-27T04:41:44.005Z,0
2016-10-27T04:42:43.978Z,0
2016-10-27T04:43:43.941Z,0
2016-10-27T04:44:43.948Z,0
2016-10-27T04:45:43.882Z,0
2016-10-27T04:46:43.961Z,0
2016-10-27T04:47:43.896Z,0
2016-10-27T04:48:44.005Z,0
2016-10-27T04:49:43.943Z,0
2016-10-27T04:50:43.945Z,0
2016-10-27T04:51:43.917Z,0
2016-10-27T04:52:43.938Z,0
2016-10-27T04:53:44.009Z,0
2016-10-27T04:54:43.975Z,0
2016-10-27T04:55:43.936Z,0
2016-10-27T04:56:44.016Z,0
2016-10-27T04:57:43.936Z,0
2016-10-27T04:58:43.942Z,0
2016-10-27T04:59:43.926Z,0
2016-10-27T05:00:43.933Z,0
2016-10-27T05:01:43.931Z,0
2016-10-27T05:02:43.946Z,0
2016-10-27T05:03:43.965Z,0
2016-10-27T05:04:43.945Z,0
2016-10-27T05:05:43.932Z,0
2016-10-27T05:06:43.946Z,0
2016-10-27T05:07:43.928Z,0
2016-10-27T05:08:43.943Z,0
2016-10-27T05:09:44.043Z,0
2016-10-27T05:10:44.029Z,0
2016-10-27T05:11:46.371Z,0
2016-10-27T05:12:44.013Z,0
2016-10-27T05:13:44.029Z,0
2016-10-27T05:14:44.039Z,0
2016-10-27T05:15:43.995Z,0
2016-10-27T05:16:44.986Z,0
2016-10-27T05:17:44.421Z,0
2016-10-27T05:18:44.714Z,0
2016-10-27T05:19:44.106Z,0
2016-10-27T05:20:44.038Z,0
2016-10-27T05:21:44.236Z,0
2016-10-27T05:22:45.205Z,0
2016-10-27T05:23:43.950Z,0
2016-10-27T05:24:43.920Z,0
2016-10-27T05:25:44.085Z,0
2016-10-27T05:26:45.104Z,0
2016-10-27T05:27:44.320Z,0
2016-10-27T05:28:43.997Z,0
2016-10-27T05:29:43.956Z,0
2016-10-27T05:30:43.978Z,0
2016-10-27T05:31:44.006Z,0
2016-10-27T05:32:44.120Z,0
2016-10-27T05:33:44.005Z,0
2016-10-27T05:34:43.941Z,0
2016-10-27T05:35:43.934Z,0
2016-10-27T05:36:43.928Z,0
2016-10-27T05:37:44.022Z,0
2016-10-27T05:38:43.984Z,0
2016-10-27T05:39:43.968Z,0
2016-10-27T05:40:43.938Z,0
2016-10-27T05:41:44.009Z,0
2016-10-27T05:42:44.006Z,0
2016-10-27T05:43:43.988Z,0
2016-10-27T05:44:43.956Z,0
2016-10-27T05:45:43.938Z,0
2016-10-27T05:46:43.967Z,4
2016-10-27T05:47:43.983Z,4
2016-10-27T05:48:43.995Z,4
2016-10-27T05:49:43.980Z,0
2016-10-27T05:50:43.985Z,4
2016-10-27T05:51:43.999Z,4
2016-10-27T05:52:43.973Z,4
2016-10-27T05:53:44.601Z,8
2016-10-27T05:54:44.027Z,4
2016-10-27T05:55:43.992Z,8
2016-10-27T05:56:44.038Z,12
2016-10-27T05:57:44.763Z,12
2016-10-27T05:58:44.087Z,12
2016-10-27T05:59:44.015Z,20
2016-10-27T06:00:44.030Z,16
2016-10-27T06:01:44.017Z,24
2016-10-27T06:02:43.999Z,24
2016-10-27T06:03:44.366Z,32
2016-10-27T06:04:44.401Z,32
2016-10-27T06:05:44.042Z,36
2016-10-27T06:06:44.025Z,40
2016-10-27T06:07:44.172Z,48
2016-10-27T06:08:44.005Z,56
2016-10-27T06:09:43.953Z,60
2016-10-27T06:10:43.982Z,72
2016-10-27T06:11:44.154Z,80
2016-10-27T06:12:44.030Z,92
2016-10-27T06:13:44.002Z,100
2016-10-27T06:14:44.005Z,108
2016-10-27T06:15:44.003Z,116
2016-10-27T06:16:44.001Z,120
2016-10-27T06:17:43.966Z,132
2016-10-27T06:18:44.000Z,148
2016-10-27T06:19:43.994Z,164
2016-10-27T06:20:44.024Z,168
2016-10-27T06:21:43.958Z,176
2016-10-27T06:22:43.988Z,196
2016-10-27T06:23:44.071Z,204
2016-10-27T06:24:44.071Z,212
2016-10-27T06:25:44.046Z,228
2016-10-27T06:26:44.004Z,236
2016-10-27T06:27:43.991Z,248
2016-10-27T06:28:44.036Z,264
2016-10-27T06:29:43.996Z,272
2016-10-27T06:30:44.045Z,272
2016-10-27T06:31:44.054Z,284
2016-10-27T06:32:43.985Z,300
2016-10-27T06:33:44.011Z,328
2016-10-27T06:34:43.998Z,332
2016-10-27T06:35:44.002Z,360
2016-10-27T06:36:44.033Z,392
2016-10-27T06:37:44.078Z,404
2016-10-27T06:38:44.086Z,408
2016-10-27T06:39:44.017Z,428
2016-10-27T06:40:44.023Z,480
2016-10-27T06:41:44.001Z,492
2016-10-27T06:42:44.021Z,528
2016-10-27T06:43:44.025Z,596
2016-10-27T06:44:44.020Z,620
2016-10-27T06:45:44.006Z,616
2016-10-27T06:46:44.058Z,648
2016-10-27T06:47:44.050Z,704
2016-10-27T06:48:44.024Z,720
2016-10-27T06:49:44.068Z,736
2016-10-27T06:50:44.024Z,756
2016-10-27T06:51:43.990Z,768
2016-10-27T06:52:44.117Z,772
2016-10-27T06:53:44.051Z,784
2016-10-27T06:54:44.230Z,852
2016-10-27T06:55:44.312Z,948
2016-10-27T06:56:44.531Z,1020
2016-10-27T06:57:44.061Z,1100
2016-10-27T06:58:44.048Z,1108
2016-10-27T06:59:44.026Z,1140
2016-10-27T07:00:44.029Z,1096
2016-10-27T07:01:44.053Z,1120
2016-10-27T07:02:44.010Z,1108
2016-10-27T07:03:44.073Z,1120
2016-10-27T07:04:44.088Z,1072
2016-10-27T07:05:44.052Z,1088
2016-10-27T07:06:44.019Z,1188
2016-10-27T07:07:44.039Z,1196
2016-10-27T07:08:44.033Z,1204
2016-10-27T07:09:44.000Z,1324
2016-10-27T07:10:44.014Z,1384
2016-10-27T07:11:44.020Z,1400
2016-10-27T07:12:44.058Z,1388
2016-10-27T07:13:44.054Z,1520
2016-10-27T07:14:44.004Z,1572
2016-10-27T07:15:44.003Z,1748
2016-10-27T07:16:44.056Z,1788
2016-10-27T07:17:44.068Z,1812
2016-10-27T07:18:44.032Z,1924
2016-10-27T07:19:44.041Z,2116
2016-10-27T07:20:44.083Z,2172
2016-10-27T07:21:44.059Z,2248
2016-10-27T07:22:44.046Z,2312
2016-10-27T07:23:44.154Z,2224
2016-10-27T07:24:44.143Z,2156
2016-10-27T07:25:44.103Z,2156
2016-10-27T07:26:44.092Z,2140
2016-10-27T07:27:44.049Z,2252
2016-10-27T07:28:44.147Z,2044
2016-10-27T07:29:44.073Z,2124
2016-10-27T07:30:44.099Z,2068
2016-10-27T07:31:44.076Z,2144
2016-10-27T07:32:44.267Z,2088
2016-10-27T07:33:44.136Z,1892
2016-10-27T07:34:44.140Z,1936
2016-10-27T07:35:44.115Z,1936
2016-10-27T07:36:44.076Z,1900
2016-10-27T07:37:44.099Z,2012
2016-10-27T07:38:44.086Z,1980
2016-10-27T07:39:44.095Z,1992
2016-10-27T07:40:44.075Z,1888
2016-10-27T07:41:44.098Z,1848
2016-10-27T07:42:44.076Z,1972
2016-10-27T07:43:44.054Z,2136
2016-10-27T07:44:44.071Z,2012
2016-10-27T07:45:44.063Z,2064
2016-10-27T07:46:44.042Z,2152
2016-10-27T07:47:44.106Z,2240
2016-10-27T07:48:44.071Z,2624
2016-10-27T07:49:44.051Z,3116
2016-10-27T07:50:44.070Z,3532
2016-10-27T07:51:44.049Z,3688
2016-10-27T07:52:44.364Z,3776
2016-10-27T07:53:44.135Z,3076
2016-10-27T07:54:44.070Z,2768
2016-10-27T07:55:44.105Z,2836
2016-10-27T07:56:44.108Z,2172
2016-10-27T07:57:44.160Z,2220
2016-10-27T07:58:44.101Z,2880
2016-10-27T07:59:44.087Z,3832
2016-10-27T08:00:44.086Z,4664
2016-10-27T08:01:44.108Z,4796
2016-10-27T08:02:44.108Z,4096
2016-10-27T08:03:44.099Z,3908
2016-10-27T08:04:44.074Z,2832
2016-10-27T08:05:44.124Z,2760
2016-10-27T08:06:44.166Z,2640
2016-10-27T08:07:44.104Z,2592
2016-10-27T08:08:44.059Z,2368
2016-10-27T08:09:44.086Z,2380
2016-10-27T08:10:44.105Z,2296
2016-10-27T08:11:44.252Z,2288
2016-10-27T08:12:44.102Z,2516
2016-10-27T08:13:44.070Z,2280
2016-10-27T08:14:44.152Z,2612
2016-10-27T08:15:44.084Z,3220
2016-10-27T08:16:44.048Z,2588
2016-10-27T08:17:44.086Z,2280
2016-10-27T08:18:44.093Z,2028
2016-10-27T08:19:44.112Z,2344
2016-10-27T08:20:44.086Z,2616
2016-10-27T08:21:44.146Z,3348
2016-10-27T08:22:44.045Z,3684
2016-10-27T08:23:44.111Z,3524
2016-10-27T08:24:44.073Z,3512
2016-10-27T08:25:44.064Z,3264
2016-10-27T08:26:44.117Z,3544
2016-10-27T08:27:44.277Z,3408
2016-10-27T08:28:44.810Z,3824
2016-10-27T08:29:44.106Z,3616
2016-10-27T08:30:44.282Z,3492
2016-10-27T08:31:44.099Z,3356
2016-10-27T08:32:44.076Z,3668
2016-10-27T08:33:44.166Z,3284
2016-10-27T08:34:44.118Z,3864
2016-10-27T08:35:44.140Z,4644
2016-10-27T08:36:44.118Z,4640
2016-10-27T08:37:44.084Z,3756
2016-10-27T08:38:44.232Z,3808
2016-10-27T08:39:44.105Z,3480
2016-10-27T08:40:44.090Z,2768
2016-10-27T08:41:44.156Z,2716
2016-10-27T08:42:44.092Z,2296
2016-10-27T08:43:44.130Z,2264
2016-10-27T08:44:44.098Z,2540
2016-10-27T08:45:44.185Z,2704
2016-10-27T08:46:44.425Z,2660
2016-10-27T08:47:44.118Z,2628
2016-10-27T08:48:44.100Z,3236
2016-10-27T08:49:44.169Z,3496
2016-10-27T08:50:44.125Z,3876
2016-10-27T08:51:44.116Z,3996
2016-10-27T08:52:44.127Z,3636
2016-10-27T08:53:44.136Z,3492
2016-10-27T08:54:44.112Z,3488
2016-10-27T08:55:44.135Z,3300
2016-10-27T08:56:44.156Z,3992
2016-10-27T08:57:44.143Z,4572
2016-10-27T08:58:44.170Z,5300
2016-10-27T08:59:44.137Z,5296
2016-10-27T09:00:44.222Z,5504
2016-10-27T09:01:44.295Z,5608
2016-10-27T09:02:44.186Z,5424
2016-10-27T09:03:44.156Z,6700
2016-10-27T09:04:44.138Z,8796
2016-10-27T09:05:44.102Z,7732
2016-10-27T09:06:44.158Z,7916
2016-10-27T09:07:44.145Z,6296
2016-10-27T09:08:44.195Z,6640
2016-10-27T09:09:44.159Z,6612
2016-10-27T09:10:44.230Z,5988
2016-10-27T09:11:44.198Z,6876
2016-10-27T09:12:44.272Z,6788
2016-10-27T09:13:45.244Z,7600
2016-10-27T09:14:44.202Z,7792
2016-10-27T09:15:44.170Z,8916
2016-10-27T09:16:44.166Z,7476
2016-10-27T09:17:44.144Z,7312
2016-10-27T09:18:44.151Z,7928
2016-10-27T09:19:44.140Z,6420
2016-10-27T09:20:44.237Z,6024
2016-10-27T09:21:44.217Z,6068
2016-10-27T09:22:44.134Z,6404
2016-10-27T09:23:44.162Z,8280
2016-10-27T09:24:44.215Z,8808
2016-10-27T09:25:44.180Z,9404
2016-10-27T09:26:44.204Z,8436
2016-10-27T09:27:44.160Z,8836
2016-10-27T09:28:44.127Z,6900
2016-10-27T09:29:44.164Z,7276
2016-10-27T09:30:44.170Z,6812
2016-10-27T09:31:44.134Z,6312
2016-10-27T09:32:44.154Z,6652
2016-10-27T09:33:44.159Z,6996
2016-10-27T09:34:44.123Z,7824
2016-10-27T09:35:44.141Z,8168
2016-10-27T09:36:44.195Z,8880
2016-10-27T09:37:44.247Z,8688
2016-10-27T09:38:44.192Z,8056
2016-10-27T09:39:44.205Z,7948
2016-10-27T09:40:44.213Z,8328
2016-10-27T09:41:44.213Z,7892
2016-10-27T09:42:44.133Z,8524
2016-10-27T09:43:44.142Z,7572
2016-10-27T09:44:44.148Z,7668
2016-10-27T09:45:44.166Z,5760
2016-10-27T09:46:44.124Z,5636
2016-10-27T09:47:44.155Z,6788
2016-10-27T09:48:44.876Z,6720
2016-10-27T09:49:44.172Z,6764
2016-10-27T09:50:44.166Z,7200
2016-10-27T09:51:44.117Z,6556
2016-10-27T09:52:44.162Z,6012
2016-10-27T09:53:44.226Z,4860
2016-10-27T09:54:44.170Z,7008
2016-10-27T09:55:44.215Z,6452
2016-10-27T09:56:44.189Z,6628
2016-10-27T09:57:44.124Z,5356
2016-10-27T09:58:44.194Z,5416
2016-10-27T09:59:44.185Z,6104
2016-10-27T10:00:44.205Z,6540
2016-10-27T10:01:44.221Z,5768
2016-10-27T10:02:44.186Z,6140
2016-10-27T10:03:44.205Z,5636
2016-10-27T10:04:44.162Z,6332
2016-10-27T10:05:44.134Z,5664
2016-10-27T10:06:44.304Z,4840
2016-10-27T10:07:44.223Z,4872
2016-10-27T10:08:44.178Z,6544
2016-10-27T10:09:44.178Z,5800
2016-10-27T10:10:44.147Z,5896
2016-10-27T10:11:44.189Z,5484
2016-10-27T10:12:44.153Z,5772
2016-10-27T10:13:44.290Z,5580
2016-10-27T10:14:44.216Z,4832
2016-10-27T10:15:44.175Z,5828
2016-10-27T10:16:44.918Z,6000
2016-10-27T10:17:44.200Z,6100
2016-10-27T10:18:44.194Z,6932
2016-10-27T10:19:44.217Z,6448
2016-10-27T10:20:44.188Z,5736
2016-10-27T10:21:44.199Z,6112
2016-10-27T10:22:44.159Z,6596
2016-10-27T10:23:44.456Z,7012
2016-10-27T10:24:44.232Z,6184
2016-10-27T10:25:44.261Z,5408
2016-10-27T10:26:44.210Z,5888
2016-10-27T10:27:44.257Z,6272
2016-10-27T10:28:44.224Z,6984
2016-10-27T10:29:44.200Z,5672
2016-10-27T10:30:44.195Z,7352
2016-10-27T10:31:44.185Z,6700
2016-10-27T10:32:44.222Z,7880
2016-10-27T10:33:44.211Z,8396
2016-10-27T10:34:44.198Z,7904
2016-10-27T10:35:44.167Z,9176
2016-10-27T10:36:44.189Z,8740
2016-10-27T10:37:44.185Z,8328
2016-10-27T10:38:44.188Z,7616
2016-10-27T10:39:44.204Z,7588
2016-10-27T10:40:44.189Z,6692
2016-10-27T10:41:44.400Z,7528
2016-10-27T10:42:44.191Z,7636
2016-10-27T10:43:44.262Z,7856
2016-10-27T10:44:44.244Z,7208
2016-10-27T10:45:44.534Z,7620
2016-10-27T10:46:44.321Z,8888
2016-10-27T10:47:44.195Z,7348
2016-10-27T10:48:44.814Z,8104
2016-10-27T10:49:44.748Z,9968
2016-10-27T10:50:44.205Z,8012
2016-10-27T10:51:44.800Z,9216
2016-10-27T10:52:44.198Z,7484
2016-10-27T10:53:44.338Z,8196
2016-10-27T10:54:44.300Z,7000
2016-10-27T10:55:44.218Z,6960
2016-10-27T10:56:44.207Z,7352
2016-10-27T10:57:44.197Z,8868
2016-10-27T10:58:44.239Z,8436
2016-10-27T10:59:44.256Z,7696
2016-10-27T11:00:44.313Z,7104
2016-10-27T11:01:44.465Z,6332
2016-10-27T11:02:44.185Z,8080
2016-10-27T11:03:44.265Z,7020
2016-10-27T11:04:44.374Z,6792
2016-10-27T11:05:44.185Z,6772
2016-10-27T11:06:44.201Z,7260
2016-10-27T11:07:44.237Z,8776
2016-10-27T11:08:44.269Z,7484
2016-10-27T11:09:44.250Z,7616
2016-10-27T11:10:44.333Z,7264
2016-10-27T11:11:44.288Z,10168
2016-10-27T11:12:44.327Z,9304
2016-10-27T11:13:44.274Z,9656
2016-10-27T11:14:44.240Z,8104
2016-10-27T11:15:44.231Z,8648
2016-10-27T11:16:44.211Z,7952
2016-10-27T11:17:44.301Z,10832
2016-10-27T11:18:44.236Z,10400
2016-10-27T11:19:44.230Z,8636
2016-10-27T11:20:44.270Z,7332
2016-10-27T11:21:44.294Z,8560
2016-10-27T11:22:44.329Z,8340
2016-10-27T11:23:44.335Z,8504
2016-10-27T11:24:44.343Z,8292
2016-10-27T11:25:44.268Z,6624
2016-10-27T11:26:44.261Z,9832
2016-10-27T11:27:44.268Z,9900
2016-10-27T11:28:44.889Z,8328
2016-10-27T11:29:44.277Z,9136
2016-10-27T11:30:44.262Z,9652
2016-10-27T11:31:44.259Z,9664
2016-10-27T11:32:44.221Z,7880
2016-10-27T11:33:44.317Z,8936
2016-10-27T11:34:44.238Z,8000
2016-10-27T11:35:44.268Z,9624
2016-10-27T11:36:44.262Z,7020
2016-10-27T11:37:44.236Z,7580
2016-10-27T11:38:44.290Z,9456
2016-10-27T11:39:44.238Z,9864
2016-10-27T11:40:44.247Z,8884
2016-10-27T11:41:44.266Z,7340
2016-10-27T11:42:44.263Z,8264
2016-10-27T11:43:44.358Z,7948
2016-10-27T11:44:44.276Z,8316
2016-10-27T11:45:44.326Z,7084
2016-10-27T11:46:44.322Z,7808
2016-10-27T11:47:44.246Z,7204
2016-10-27T11:48:44.327Z,7340
2016-10-27T11:49:44.281Z,6200
2016-10-27T11:50:44.303Z,6748
2016-10-27T11:51:44.255Z,7256
2016-10-27T11:52:44.326Z,7824
2016-10-27T11:53:44.268Z,7008
2016-10-27T11:54:44.289Z,6368
2016-10-27T11:55:44.293Z,4964
2016-10-27T11:56:44.246Z,4276
2016-10-27T11:57:44.231Z,8168
2016-10-27T11:58:44.298Z,6548
2016-10-27T11:59:44.272Z,7804
2016-10-27T12:00:44.276Z,6932
2016-10-27T12:01:44.295Z,6180
2016-10-27T12:02:44.284Z,6452
2016-10-27T12:03:44.273Z,6236
2016-10-27T12:04:44.544Z,5960
2016-10-27T12:05:44.271Z,6332
2016-10-27T12:06:44.335Z,6488
2016-10-27T12:07:44.392Z,5340
2016-10-27T12:08:44.397Z,8160
2016-10-27T12:09:44.377Z,5592
2016-10-27T12:10:44.949Z,5720
2016-10-27T12:11:44.294Z,5272
2016-10-27T12:12:44.280Z,6212
2016-10-27T12:13:44.519Z,7640
2016-10-27T12:14:44.293Z,7548
2016-10-27T12:15:44.314Z,7300
2016-10-27T12:16:44.323Z,6524
2016-10-27T12:17:44.317Z,7012
2016-10-27T12:18:44.337Z,5604
2016-10-27T12:19:44.343Z,5924
2016-10-27T12:20:44.323Z,4352
2016-10-27T12:21:44.306Z,4536
2016-10-27T12:22:44.315Z,4764
2016-10-27T12:23:44.336Z,4736
2016-10-27T12:24:44.340Z,5240
2016-10-27T12:25:44.343Z,5556
2016-10-27T12:26:44.332Z,5752
2016-10-27T12:27:44.572Z,5148
2016-10-27T12:28:44.321Z,5636
2016-10-27T12:29:44.984Z,7120
2016-10-27T12:30:44.320Z,8936
2016-10-27T12:31:44.333Z,8756
2016-10-27T12:32:44.377Z,7728
2016-10-27T12:33:44.345Z,6384
2016-10-27T12:34:44.333Z,5916
2016-10-27T12:35:44.304Z,6832
2016-10-27T12:36:44.329Z,8148
2016-10-27T12:37:44.342Z,7900
2016-10-27T12:38:44.410Z,6356
2016-10-27T12:39:44.333Z,4596
2016-10-27T12:40:44.335Z,6268
2016-10-27T12:41:44.327Z,6256
2016-10-27T12:42:44.348Z,5024
2016-10-27T12:43:44.320Z,4576
2016-10-27T12:44:44.380Z,3732
2016-10-27T12:45:44.343Z,3952
2016-10-27T12:46:44.964Z,3904
2016-10-27T12:47:44.329Z,3748
2016-10-27T12:48:44.336Z,3488
2016-10-27T12:49:44.510Z,3344
2016-10-27T12:50:44.423Z,3680
2016-10-27T12:51:44.387Z,3720
2016-10-27T12:52:44.372Z,4440
2016-10-27T12:53:44.359Z,4860
2016-10-27T12:54:44.413Z,3944
2016-10-27T12:55:44.383Z,3648
2016-10-27T12:56:44.422Z,3272
2016-10-27T12:57:44.377Z,2940
2016-10-27T12:58:44.368Z,4220
2016-10-27T12:59:44.448Z,3904
2016-10-27T13:00:44.352Z,4624
2016-10-27T13:01:44.383Z,6216
2016-10-27T13:02:44.540Z,6312
2016-10-27T13:03:44.463Z,5608
2016-10-27T13:04:44.376Z,5860
2016-10-27T13:05:44.352Z,6412
2016-10-27T13:06:44.594Z,8020
2016-10-27T13:07:44.389Z,7200
2016-10-27T13:08:44.324Z,6712
2016-10-27T13:09:44.385Z,6736
2016-10-27T13:10:44.389Z,6732
2016-10-27T13:11:44.431Z,7440
2016-10-27T13:12:44.388Z,6832
2016-10-27T13:13:44.552Z,6588
2016-10-27T13:14:44.391Z,6580
2016-10-27T13:15:44.353Z,7024
2016-10-27T13:16:44.358Z,6280
2016-10-27T13:17:44.387Z,6860
2016-10-27T13:18:44.367Z,5608
2016-10-27T13:19:44.394Z,4976
2016-10-27T13:20:44.387Z,5116
2016-10-27T13:21:44.369Z,4892
2016-10-27T13:22:45.169Z,4576
2016-10-27T13:23:45.153Z,5232
2016-10-27T13:24:44.357Z,3780
2016-10-27T13:25:44.406Z,4052
2016-10-27T13:26:44.416Z,4836
2016-10-27T13:27:45.166Z,4612
2016-10-27T13:28:45.187Z,4088
2016-10-27T13:29:44.387Z,3588
2016-10-27T13:30:44.333Z,4460
2016-10-27T13:31:44.401Z,4828
2016-10-27T13:32:44.445Z,4388
2016-10-27T13:33:44.372Z,4696
2016-10-27T13:34:44.427Z,3996
2016-10-27T13:35:44.641Z,3868
2016-10-27T13:36:44.376Z,3708
2016-10-27T13:37:44.353Z,3672
2016-10-27T13:38:44.374Z,3432
2016-10-27T13:39:44.367Z,3240
2016-10-27T13:40:44.403Z,2944
2016-10-27T13:41:44.430Z,2540
2016-10-27T13:42:44.378Z,2408
2016-10-27T13:43:44.355Z,2372
2016-10-27T13:44:44.434Z,2248
2016-10-27T13:45:44.528Z,1964
2016-10-27T13:46:44.438Z,1996
2016-10-27T13:47:44.429Z,2388
2016-10-27T13:48:44.461Z,2192
2016-10-27T13:49:44.451Z,1528
2016-10-27T13:50:44.520Z,1280
2016-10-27T13:51:44.400Z,1208
2016-10-27T13:52:44.430Z,1424
2016-10-27T13:53:44.433Z,1468
2016-10-27T13:54:44.471Z,1508
2016-10-27T13:55:44.480Z,2476
2016-10-27T13:56:44.429Z,2760